createdAt,value
2023-01-29T00:00:10.415Z,99.90
2023-01-29T00:02:37.439Z,99.90
2023-01-29T00:05:25.478Z,99.90
2023-01-29T00:07:52.722Z,99.90
2023-01-29T00:10:19.572Z,99.90
2023-01-29T00:12:46.226Z,99.90
2023-01-29T00:15:12.840Z,99.90
2023-01-29T00:17:39.450Z,99.90
2023-01-29T00:20:06.540Z,99.90
2023-01-29T00:22:33.163Z,99.90
2023-01-29T00:24:59.848Z,99.90
2023-01-29T00:27:26.480Z,99.90
2023-01-29T00:30:09.156Z,99.90
2023-01-29T00:32:36.303Z,99.90
2023-01-29T00:35:03.394Z,99.90
2023-01-29T00:37:30.427Z,99.90
2023-01-29T00:39:57.098Z,99.90
2023-01-29T00:42:42.420Z,99.90
2023-01-29T00:45:10.675Z,99.90
2023-01-29T00:47:37.677Z,99.90
2023-01-29T00:50:07.586Z,99.90
2023-01-29T00:52:36.350Z,99.90
2023-01-29T00:55:05.625Z,99.90
2023-01-29T00:57:33.898Z,99.90
2023-01-29T01:00:01.586Z,99.90
2023-01-29T01:02:47.357Z,99.90
2023-01-29T01:05:19.700Z,99.90
2023-01-29T01:07:53.499Z,99.90
2023-01-29T01:10:32.449Z,99.90
2023-01-29T01:13:04.940Z,99.90
2023-01-29T01:15:35.004Z,99.90
2023-01-29T01:18:03.101Z,99.90
2023-01-29T01:20:33.139Z,99.90
2023-01-29T01:22:59.843Z,99.90
2023-01-29T01:25:27.459Z,99.90
2023-01-29T01:27:56.067Z,99.90
2023-01-29T01:30:24.379Z,99.90
2023-01-29T01:32:51.279Z,99.90
2023-01-29T01:35:18.167Z,99.90
2023-01-29T01:37:44.861Z,99.90
2023-01-29T01:40:23.231Z,99.90
2023-01-29T01:42:57.884Z,99.90
2023-01-29T01:45:36.030Z,99.90
2023-01-29T01:48:02.712Z,99.90
2023-01-29T01:51:03.852Z,99.90
2023-01-29T01:53:39.069Z,99.90
2023-01-29T01:56:14.751Z,99.90
2023-01-29T01:58:47.005Z,99.90
2023-01-29T02:01:13.888Z,99.90
2023-01-29T02:04:14.026Z,99.90
2023-01-29T02:07:00.003Z,99.90
2023-01-29T02:09:38.807Z,99.90
2023-01-29T02:12:07.002Z,99.90
2023-01-29T02:14:38.790Z,99.90
2023-01-29T02:17:24.208Z,99.90
2023-01-29T02:19:57.057Z,99.90
2023-01-29T02:22:47.095Z,99.90
2023-01-29T02:25:32.257Z,99.90
2023-01-29T02:28:23.583Z,99.90
2023-01-29T02:31:23.683Z,99.90
2023-01-29T02:34:16.736Z,99.90
2023-01-29T02:36:51.888Z,99.90
2023-01-29T02:39:36.350Z,99.90
2023-01-29T02:42:27.797Z,99.90
2023-01-29T02:45:05.074Z,99.90
2023-01-29T02:48:09.965Z,99.90
2023-01-29T02:50:54.310Z,99.90
2023-01-29T02:53:32.533Z,99.90
2023-01-29T02:56:36.907Z,99.90
2023-01-29T02:59:14.605Z,99.90
2023-01-29T03:01:57.636Z,99.90
2023-01-29T03:04:32.977Z,99.90
2023-01-29T03:07:22.465Z,99.90
2023-01-29T03:09:52.969Z,99.90
2023-01-29T03:12:33.862Z,99.90
2023-01-29T03:15:14.978Z,99.90
2023-01-29T03:17:51.077Z,99.90
2023-01-29T03:20:22.635Z,99.90
2023-01-29T03:22:55.034Z,99.90
2023-01-29T03:25:42.584Z,99.90
2023-01-29T03:28:33.543Z,99.90
2023-01-29T03:31:24.653Z,99.90
2023-01-29T03:34:00.090Z,99.90
2023-01-29T03:36:39.833Z,99.90
2023-01-29T03:39:09.426Z,99.90
2023-01-29T03:41:46.219Z,99.90
2023-01-29T03:44:31.130Z,99.90
2023-01-29T03:47:08.723Z,99.90
2023-01-29T03:49:54.945Z,99.90
2023-01-29T03:52:47.459Z,99.90
2023-01-29T03:55:24.623Z,99.90
2023-01-29T03:58:04.824Z,99.90
2023-01-29T04:01:11.613Z,99.90
2023-01-29T04:03:43.927Z,99.90
2023-01-29T04:06:24.100Z,99.90
2023-01-29T04:08:59.603Z,99.90
2023-01-29T04:11:28.633Z,99.90
2023-01-29T04:13:57.091Z,99.90
2023-01-29T04:16:35.607Z,99.90
2023-01-29T04:19:02.677Z,99.90
2023-01-29T04:21:31.850Z,99.90
2023-01-29T04:23:58.553Z,99.90
2023-01-29T04:26:28.335Z,99.90
2023-01-29T04:29:04.207Z,99.90
2023-01-29T04:31:44.278Z,99.90
2023-01-29T04:34:33.697Z,99.90
2023-01-29T04:37:03.405Z,99.90
2023-01-29T04:39:56.411Z,99.90
2023-01-29T04:42:33.372Z,99.90
2023-01-29T04:45:18.533Z,99.90
2023-01-29T04:47:58.267Z,99.90
2023-01-29T04:50:38.031Z,99.90
2023-01-29T04:53:17.474Z,99.90
2023-01-29T04:56:20.215Z,99.90
2023-01-29T04:58:52.881Z,99.90
2023-01-29T05:01:22.369Z,99.90
2023-01-29T05:03:52.074Z,99.90
2023-01-29T05:06:19.870Z,99.90
2023-01-29T05:08:49.673Z,99.90
2023-01-29T05:11:18.504Z,99.90
2023-01-29T05:13:47.843Z,99.90
2023-01-29T05:16:25.841Z,99.90
2023-01-29T05:18:52.688Z,99.90
2023-01-29T05:21:20.767Z,99.90
2023-01-29T05:23:58.883Z,99.90
2023-01-29T05:26:44.218Z,99.90
2023-01-29T05:29:12.230Z,99.90
2023-01-29T05:31:38.924Z,99.90
2023-01-29T05:34:05.585Z,99.90
2023-01-29T05:36:32.259Z,99.90
2023-01-29T05:38:58.891Z,99.90
2023-01-29T05:41:25.522Z,99.90
2023-01-29T05:43:52.163Z,99.90
2023-01-29T05:46:18.803Z,99.90
2023-01-29T05:48:45.432Z,99.90
2023-01-29T05:51:12.200Z,99.90
2023-01-29T05:53:38.811Z,99.90
2023-01-29T05:56:05.771Z,99.90
2023-01-29T05:58:33.087Z,99.90
2023-01-29T06:01:09.021Z,99.90
2023-01-29T06:03:35.677Z,99.90
2023-01-29T06:06:02.672Z,99.90
2023-01-29T06:08:29.321Z,99.90
2023-01-29T06:10:55.998Z,99.90
2023-01-29T06:13:23.709Z,99.90
2023-01-29T06:15:50.535Z,99.90
2023-01-29T06:18:17.218Z,99.90
2023-01-29T06:20:43.852Z,99.90
2023-01-29T06:23:10.527Z,99.90
2023-01-29T06:25:37.249Z,99.90
2023-01-29T06:28:04.112Z,99.90
2023-01-29T06:30:31.860Z,99.90
2023-01-29T06:33:01.565Z,99.90
2023-01-29T06:35:28.696Z,99.90
2023-01-29T06:37:56.385Z,99.90
2023-01-29T06:40:23.077Z,99.90
2023-01-29T06:42:49.695Z,99.90
2023-01-29T06:45:16.415Z,99.90
2023-01-29T06:47:43.001Z,99.90
2023-01-29T06:50:10.397Z,99.90
2023-01-29T06:52:36.991Z,99.90
2023-01-29T06:55:03.811Z,99.90
2023-01-29T06:57:30.457Z,99.90
2023-01-29T06:59:57.191Z,99.90
2023-01-29T07:02:23.849Z,99.90
2023-01-29T07:04:50.521Z,99.90
2023-01-29T07:07:17.238Z,99.90
2023-01-29T07:09:43.868Z,99.90
2023-01-29T07:12:11.237Z,99.90
2023-01-29T07:14:37.858Z,99.90
2023-01-29T07:17:04.566Z,99.90
2023-01-29T07:19:31.208Z,99.90
2023-01-29T07:21:57.914Z,99.90
2023-01-29T07:24:24.866Z,99.90
2023-01-29T07:26:51.594Z,99.90
2023-01-29T07:29:18.235Z,99.90
2023-01-29T07:31:44.970Z,99.90
2023-01-29T07:34:11.616Z,99.90
2023-01-29T07:36:38.255Z,99.90
2023-01-29T07:39:04.899Z,99.90
2023-01-29T07:41:31.524Z,99.90
2023-01-29T07:43:58.158Z,99.90
2023-01-29T07:46:24.781Z,99.90
2023-01-29T07:48:51.404Z,99.90
2023-01-29T07:51:18.504Z,99.90
2023-01-29T07:53:45.133Z,99.90
2023-01-29T07:56:11.777Z,99.90
2023-01-29T07:58:38.472Z,99.90
2023-01-29T08:01:07.412Z,99.90
2023-01-29T08:03:34.081Z,99.90
2023-01-29T08:06:00.937Z,99.90
2023-01-29T08:08:27.575Z,99.90
2023-01-29T08:10:54.277Z,99.90
2023-01-29T08:13:21.009Z,99.90
2023-01-29T08:15:47.867Z,99.90
2023-01-29T08:18:14.977Z,99.90
2023-01-29T08:20:41.666Z,99.90
2023-01-29T08:23:13.193Z,99.90
2023-01-29T08:25:39.914Z,99.90
2023-01-29T08:28:06.617Z,99.90
2023-01-29T08:30:34.795Z,99.90
2023-01-29T08:33:02.932Z,99.90
2023-01-29T08:35:29.629Z,99.90
2023-01-29T08:38:01.420Z,99.90
2023-01-29T08:40:29.482Z,99.90
2023-01-29T08:43:09.194Z,99.90
2023-01-29T08:45:39.809Z,99.90
2023-01-29T08:48:07.058Z,99.90
2023-01-29T08:50:34.975Z,99.90
2023-01-29T08:53:07.920Z,99.90
2023-01-29T08:55:38.781Z,99.90
2023-01-29T08:58:06.990Z,99.90
2023-01-29T09:00:34.486Z,99.90
2023-01-29T09:03:01.179Z,99.90
2023-01-29T09:05:28.245Z,99.90
2023-01-29T09:07:56.972Z,99.90
2023-01-29T09:10:23.617Z,99.90
2023-01-29T09:12:50.315Z,99.90
2023-01-29T09:15:17.206Z,99.90
2023-01-29T09:17:44.144Z,99.90
2023-01-29T09:20:11.309Z,99.90
2023-01-29T09:22:38.172Z,99.90
2023-01-29T09:25:05.175Z,99.90
2023-01-29T09:27:31.814Z,99.90
2023-01-29T09:29:58.444Z,99.90
2023-01-29T09:32:52.038Z,99.90
2023-01-29T09:35:11.739Z,99.90
2023-01-29T09:37:38.383Z,99.90
2023-01-29T09:40:05.642Z,99.90
2023-01-29T09:42:50.266Z,99.90
2023-01-29T09:45:24.772Z,99.90
2023-01-29T09:47:52.120Z,99.90
2023-01-29T09:50:28.207Z,99.90
2023-01-29T09:53:00.351Z,99.90
2023-01-29T09:55:39.123Z,99.90
2023-01-29T09:58:18.443Z,99.90
2023-01-29T10:01:05.193Z,99.90
2023-01-29T10:03:58.331Z,99.90
2023-01-29T10:06:53.515Z,99.90
2023-01-29T10:09:34.123Z,99.90
2023-01-29T10:12:21.022Z,99.90
2023-01-29T10:15:04.820Z,99.90
2023-01-29T10:17:50.294Z,99.90
2023-01-29T10:20:25.957Z,99.90
2023-01-29T10:23:07.679Z,99.90
2023-01-29T10:25:39.256Z,99.90
2023-01-29T10:28:20.018Z,99.90
2023-01-29T10:30:54.356Z,99.90
2023-01-29T10:34:02.945Z,99.90
2023-01-29T10:36:38.471Z,99.90
2023-01-29T10:39:05.120Z,99.90
2023-01-29T10:41:42.097Z,99.90
2023-01-29T10:44:15.180Z,99.90
2023-01-29T10:46:53.784Z,99.90
2023-01-29T10:49:39.124Z,99.90
2023-01-29T10:52:15.419Z,99.90
2023-01-29T10:55:14.932Z,99.90
2023-01-29T10:57:49.299Z,99.90
2023-01-29T11:00:23.790Z,99.90
2023-01-29T11:02:52.064Z,99.90
2023-01-29T11:05:29.951Z,99.90
2023-01-29T11:08:08.561Z,99.90
2023-01-29T11:10:42.806Z,99.90
2023-01-29T11:13:14.346Z,99.90
2023-01-29T11:15:41.022Z,99.90
2023-01-29T11:18:14.207Z,99.90
2023-01-29T11:20:45.570Z,99.90
2023-01-29T11:23:41.681Z,99.90
2023-01-29T11:26:12.498Z,99.90
2023-01-29T11:28:39.183Z,99.90
2023-01-29T11:31:29.895Z,99.90
2023-01-29T11:34:21.828Z,99.90
2023-01-29T11:37:03.394Z,99.90
2023-01-29T11:39:32.087Z,99.90
2023-01-29T11:42:04.042Z,99.90
2023-01-29T11:44:36.943Z,99.90
2023-01-29T11:47:23.900Z,99.90
2023-01-29T11:49:59.392Z,99.90
2023-01-29T11:52:38.592Z,99.90
2023-01-29T11:55:18.706Z,99.90
2023-01-29T11:57:56.450Z,99.90
2023-01-29T12:00:26.501Z,99.90
2023-01-29T12:03:01.418Z,99.90
2023-01-29T12:05:28.375Z,99.90
2023-01-29T12:07:57.793Z,99.90
2023-01-29T12:10:34.129Z,99.90
2023-01-29T12:13:10.371Z,99.90
2023-01-29T12:15:38.331Z,99.90
2023-01-29T12:18:10.760Z,99.90
2023-01-29T12:20:58.954Z,99.90
2023-01-29T12:23:49.916Z,99.90
2023-01-29T12:26:40.118Z,99.90
2023-01-29T12:29:27.979Z,99.90
2023-01-29T12:32:14.943Z,99.90
2023-01-29T12:34:53.159Z,99.90
2023-01-29T12:37:42.764Z,99.90
2023-01-29T12:40:16.089Z,99.90
2023-01-29T12:42:50.260Z,99.90
2023-01-29T12:45:20.759Z,99.90
2023-01-29T12:47:53.914Z,99.90
2023-01-29T12:50:25.116Z,99.90
2023-01-29T12:53:14.719Z,99.90
2023-01-29T12:55:55.510Z,99.90
2023-01-29T12:58:43.252Z,99.90
2023-01-29T13:01:17.158Z,99.90
2023-01-29T13:03:53.546Z,99.90
2023-01-29T13:06:30.306Z,99.90
2023-01-29T13:09:04.375Z,99.90
2023-01-29T13:11:44.259Z,99.70
2023-01-29T13:14:50.224Z,99.00
2023-01-29T13:17:37.695Z,99.00
2023-01-29T13:20:18.104Z,98.60
2023-01-29T13:22:48.036Z,99.10
2023-01-29T13:25:16.974Z,98.90
2023-01-29T13:27:45.818Z,99.80
2023-01-29T13:30:36.442Z,99.90
2023-01-29T13:33:11.785Z,99.90
2023-01-29T13:35:43.771Z,99.90
2023-01-29T13:38:26.906Z,99.90
2023-01-29T13:40:58.296Z,99.90
2023-01-29T13:43:25.185Z,99.90
2023-01-29T13:45:53.970Z,99.90
2023-01-29T13:48:29.510Z,99.20
2023-01-29T13:51:01.057Z,97.20
2023-01-29T13:53:33.577Z,96.30
2023-01-29T13:56:35.321Z,95.00
2023-01-29T13:59:05.392Z,94.30
2023-01-29T14:01:47.327Z,93.70
2023-01-29T14:04:22.560Z,92.00
2023-01-29T14:06:52.436Z,91.00
2023-01-29T14:09:37.244Z,89.00
2023-01-29T14:12:24.443Z,90.30
2023-01-29T14:14:57.135Z,90.80
2023-01-29T14:17:26.747Z,90.80
2023-01-29T14:19:59.333Z,90.00
2023-01-29T14:22:30.247Z,88.80
2023-01-29T14:25:01.672Z,82.80
2023-01-29T14:27:29.364Z,83.90
2023-01-29T14:30:01.798Z,83.30
2023-01-29T14:32:29.290Z,84.30
2023-01-29T14:35:18.245Z,87.00
2023-01-29T14:37:47.966Z,90.40
2023-01-29T14:40:21.753Z,91.80
2023-01-29T14:43:03.952Z,93.20
2023-01-29T14:45:36.448Z,94.40
2023-01-29T14:48:03.050Z,95.40
2023-01-29T14:50:31.626Z,97.10
2023-01-29T14:53:16.219Z,98.00
2023-01-29T14:55:50.322Z,98.90
2023-01-29T14:58:22.094Z,99.50
2023-01-29T15:00:53.291Z,99.90
2023-01-29T15:03:29.568Z,99.90
2023-01-29T15:05:59.404Z,99.90
2023-01-29T15:08:38.290Z,99.90
2023-01-29T15:11:30.876Z,99.90
2023-01-29T15:14:17.982Z,99.90
2023-01-29T15:17:09.919Z,99.90
2023-01-29T15:19:48.385Z,99.90
2023-01-29T15:22:21.737Z,99.90
2023-01-29T15:25:04.084Z,99.90
2023-01-29T15:27:31.159Z,99.90
2023-01-29T15:30:01.170Z,99.90
2023-01-29T15:32:37.975Z,99.90
2023-01-29T15:35:38.378Z,99.90
2023-01-29T15:38:18.228Z,99.90
2023-01-29T15:41:15.360Z,99.90
2023-01-29T15:43:48.411Z,99.90
2023-01-29T15:46:32.619Z,99.90
2023-01-29T15:49:06.389Z,99.90
2023-01-29T15:51:33.611Z,99.90
2023-01-29T15:54:03.462Z,99.90
2023-01-29T15:56:36.242Z,99.90
2023-01-29T15:59:09.678Z,99.90
2023-01-29T16:01:36.714Z,99.90
2023-01-29T16:04:04.274Z,99.90
2023-01-29T16:06:37.790Z,99.90
2023-01-29T16:09:05.879Z,99.90
2023-01-29T16:11:34.022Z,99.90
2023-01-29T16:14:02.747Z,99.90
2023-01-29T16:16:29.548Z,99.90
2023-01-29T16:19:01.030Z,99.90
2023-01-29T16:21:36.316Z,99.90
2023-01-29T16:24:11.639Z,99.90
2023-01-29T16:26:43.227Z,99.90
2023-01-29T16:29:13.020Z,99.90
2023-01-29T16:31:41.907Z,99.90
2023-01-29T16:34:28.961Z,99.90
2023-01-29T16:36:56.260Z,99.90
2023-01-29T16:39:36.034Z,99.90
2023-01-29T16:42:20.221Z,99.90
2023-01-29T16:44:51.616Z,99.90
2023-01-29T16:47:24.054Z,99.90
2023-01-29T16:49:53.635Z,99.90
2023-01-29T16:52:29.587Z,99.90
2023-01-29T16:55:01.937Z,99.90
2023-01-29T16:57:33.650Z,99.90
2023-01-29T17:00:03.517Z,99.90
2023-01-29T17:02:38.396Z,99.90
2023-01-29T17:05:09.530Z,99.90
2023-01-29T17:07:37.055Z,99.90
2023-01-29T17:10:06.392Z,99.90
2023-01-29T17:12:34.084Z,99.90
2023-01-29T17:15:04.557Z,99.90
2023-01-29T17:17:33.510Z,99.90
2023-01-29T17:20:16.811Z,99.90
2023-01-29T17:22:44.718Z,99.90
2023-01-29T17:25:15.384Z,99.90
2023-01-29T17:27:44.193Z,99.90
2023-01-29T17:30:23.579Z,99.90
2023-01-29T17:32:50.299Z,99.90
2023-01-29T17:35:17.902Z,99.90
2023-01-29T17:37:45.109Z,99.90
2023-01-29T17:40:25.773Z,99.90
2023-01-29T17:42:52.479Z,99.90
2023-01-29T17:45:19.474Z,99.90
2023-01-29T17:47:46.439Z,99.90
2023-01-29T17:50:23.608Z,99.90
2023-01-29T17:52:50.739Z,99.90
2023-01-29T17:55:17.661Z,99.90
2023-01-29T17:57:44.620Z,99.90
2023-01-29T18:00:23.093Z,99.90
2023-01-29T18:02:49.989Z,99.90
2023-01-29T18:05:18.058Z,99.90
2023-01-29T18:07:46.863Z,99.90
2023-01-29T18:10:17.451Z,99.90
2023-01-29T18:12:44.359Z,99.90
2023-01-29T18:15:11.509Z,99.90
2023-01-29T18:17:39.211Z,99.90
2023-01-29T18:20:21.722Z,99.90
2023-01-29T18:22:48.541Z,99.90
2023-01-29T18:25:16.262Z,99.90
2023-01-29T18:27:43.280Z,99.90
2023-01-29T18:30:11.131Z,99.90
2023-01-29T18:32:38.069Z,99.90
2023-01-29T18:35:07.967Z,99.90
2023-01-29T18:37:35.221Z,99.90
2023-01-29T18:40:01.861Z,99.90
2023-01-29T18:42:35.917Z,99.90
2023-01-29T18:45:03.743Z,99.90
2023-01-29T18:47:30.506Z,99.90
2023-01-29T18:49:57.193Z,99.90
2023-01-29T18:52:23.900Z,99.90
2023-01-29T18:54:50.525Z,99.90
2023-01-29T18:57:17.200Z,99.90
2023-01-29T19:00:04.528Z,99.90
2023-01-29T19:02:31.360Z,99.90
2023-01-29T19:04:58.015Z,99.90
2023-01-29T19:07:24.667Z,99.90
2023-01-29T19:09:51.332Z,99.90
2023-01-29T19:12:18.159Z,99.90
2023-01-29T19:14:44.778Z,99.90
2023-01-29T19:17:11.460Z,99.90
2023-01-29T19:19:38.078Z,99.90
2023-01-29T19:22:04.714Z,99.90
2023-01-29T19:24:36.234Z,99.90
2023-01-29T19:27:02.931Z,99.90
2023-01-29T19:29:29.676Z,99.90
2023-01-29T19:31:56.284Z,99.90
2023-01-29T19:34:23.020Z,99.90
2023-01-29T19:36:49.910Z,99.90
2023-01-29T19:39:16.667Z,99.90
2023-01-29T19:41:43.380Z,99.90
2023-01-29T19:44:11.340Z,99.90
2023-01-29T19:46:39.005Z,99.90
2023-01-29T19:49:06.665Z,99.90
2023-01-29T19:51:33.331Z,99.90
2023-01-29T19:53:59.946Z,99.90
2023-01-29T19:56:26.588Z,99.90
2023-01-29T19:58:57.171Z,99.90
2023-01-29T20:01:24.861Z,99.90
2023-01-29T20:03:51.910Z,99.90
2023-01-29T20:06:21.993Z,99.90
2023-01-29T20:08:48.696Z,99.90
2023-01-29T20:11:17.007Z,99.90
2023-01-29T20:13:45.962Z,99.90
2023-01-29T20:16:12.667Z,99.90
2023-01-29T20:18:39.381Z,99.90
2023-01-29T20:21:12.237Z,99.90
2023-01-29T20:23:39.899Z,99.90
2023-01-29T20:26:09.610Z,99.90
2023-01-29T20:28:36.590Z,99.90
2023-01-29T20:31:04.424Z,99.90
2023-01-29T20:33:31.953Z,99.90
2023-01-29T20:36:00.660Z,99.90
2023-01-29T20:38:30.425Z,99.90
2023-01-29T20:41:09.068Z,99.90
2023-01-29T20:43:36.191Z,99.90
2023-01-29T20:46:03.833Z,99.90
2023-01-29T20:48:31.323Z,99.90
2023-01-29T20:51:08.002Z,99.90
2023-01-29T20:53:34.937Z,99.90
2023-01-29T20:56:04.334Z,99.90
2023-01-29T20:58:31.685Z,99.90
2023-01-29T21:00:58.385Z,99.90
2023-01-29T21:03:25.464Z,99.90
2023-01-29T21:05:52.386Z,99.90
2023-01-29T21:08:19.046Z,99.90
2023-01-29T21:10:45.860Z,99.90
2023-01-29T21:13:12.697Z,99.90
2023-01-29T21:15:41.364Z,99.90
2023-01-29T21:18:08.011Z,99.90
2023-01-29T21:20:34.703Z,99.90
2023-01-29T21:23:04.205Z,99.90
2023-01-29T21:25:32.646Z,99.90
2023-01-29T21:27:59.435Z,99.90
2023-01-29T21:30:26.981Z,99.90
2023-01-29T21:32:53.739Z,99.90
2023-01-29T21:35:20.405Z,99.90
2023-01-29T21:37:47.030Z,99.90
2023-01-29T21:40:13.934Z,99.90
2023-01-29T21:42:59.077Z,99.90
2023-01-29T21:45:25.732Z,99.90
2023-01-29T21:47:52.512Z,99.90
2023-01-29T21:50:19.510Z,99.90
2023-01-29T21:52:46.414Z,99.90
2023-01-29T21:55:13.118Z,99.90
2023-01-29T21:57:42.675Z,99.90
2023-01-29T22:00:11.847Z,99.90
2023-01-29T22:02:38.682Z,99.90
2023-01-29T22:05:18.059Z,99.90
2023-01-29T22:07:45.868Z,99.90
2023-01-29T22:10:12.904Z,99.90
2023-01-29T22:12:40.026Z,99.90
2023-01-29T22:15:07.849Z,99.90
2023-01-29T22:17:35.298Z,99.90
2023-01-29T22:20:02.132Z,99.90
2023-01-29T22:22:28.769Z,99.90
2023-01-29T22:24:56.458Z,99.90
2023-01-29T22:27:23.304Z,99.90
2023-01-29T22:29:49.921Z,99.90
2023-01-29T22:32:16.659Z,99.90
2023-01-29T22:34:43.313Z,99.90
2023-01-29T22:37:09.951Z,99.90
2023-01-29T22:39:36.553Z,99.90
2023-01-29T22:42:03.365Z,99.90
2023-01-29T22:44:30.106Z,99.90
2023-01-29T22:46:56.800Z,99.90
2023-01-29T22:49:25.092Z,99.90
2023-01-29T22:52:09.842Z,99.90
2023-01-29T22:54:41.034Z,99.90
2023-01-29T22:57:12.874Z,99.90
2023-01-29T22:59:39.919Z,99.90
2023-01-29T23:02:07.734Z,99.90
2023-01-29T23:04:34.391Z,99.90
2023-01-29T23:07:01.060Z,99.90
2023-01-29T23:09:27.881Z,99.90
2023-01-29T23:11:54.543Z,99.90
2023-01-29T23:14:21.349Z,99.90
2023-01-29T23:16:47.975Z,99.90
2023-01-29T23:19:14.622Z,99.90
2023-01-29T23:21:41.281Z,99.90
2023-01-29T23:24:08.861Z,99.90
2023-01-29T23:26:54.232Z,99.90
2023-01-29T23:29:21.124Z,99.90
2023-01-29T23:31:47.993Z,99.90
2023-01-29T23:34:15.140Z,99.90
2023-01-29T23:36:42.398Z,99.90
2023-01-29T23:39:09.158Z,99.90
2023-01-29T23:41:36.036Z,99.90
2023-01-29T23:44:02.726Z,99.90
2023-01-29T23:46:29.499Z,99.90
2023-01-29T23:48:56.150Z,99.90
2023-01-29T23:51:22.832Z,99.90
2023-01-29T23:53:49.468Z,99.90
2023-01-29T23:56:16.108Z,99.90
2023-01-29T23:58:42.791Z,99.90
